METAR Data
IDs: Format: Raw Decoded Include TAF

Data at: 0045 UTC 19 Nov 2018

PAPH 182356Z AUTO 29011KT 10SM BKN030 BKN036 06/02 A2953 RMK AO2 SLP003 60004 T00560022 10061 20044 51001
PAPH 182256Z AUTO 27011KT 10SM SCT019 SCT024 BKN030 06/04 A2953 RMK AO2 RAE45 SLP003 P0001 T00560039
PAPH 182240Z AUTO 28010G14KT 6SM -RA BR FEW013 BKN018 OVC029 05/04 A2953 RMK AO2 P0001
PAPH 182233Z AUTO 31007KT 2 1/2SM -RA BR SCT013 BKN017 OVC029 05/04 A2953 RMK AO2 VIS 1 1/2V5 P0001
PAPH 182221Z AUTO 30008KT 7SM -RA BKN013 BKN025 OVC034 05/04 A2954 RMK AO2 P0000
PAPH 182156Z AUTO 32011G18KT 4SM -RA BR FEW014 BKN023 OVC031 05/04 A2953 RMK AO2 RAB32 SLP002 P0000 T00500039
PAPH 182056Z AUTO 29010KT 10SM FEW011 BKN020 OVC024 05/02 A2953 RMK AO2 RAB35E53 SLP002 P0000 60003 T00500022 51013
PAPH 181956Z AUTO 28011KT 10SM BKN016 OVC025 05/03 A2952 RMK AO2 RAB14E44 SLP999 P0002 T00500033
PAPH 181949Z AUTO 28013KT 10SM FEW012 BKN018 OVC025 05/04 A2952 RMK AO2 RAB14E44 P0002
PAPH 181940Z AUTO 28012KT 10SM -RA FEW006 BKN014 OVC025 05/04 A2952 RMK AO2 RAB14 P0002
PAPH 181921Z AUTO 29013KT 3SM -RA BR FEW006 BKN023 OVC029 05/04 A2951 RMK AO2 RAB14 P0000
PAPH 181856Z AUTO 29011KT 10SM FEW013 BKN020 OVC025 05/04 A2951 RMK AO2 RAB35E49 SLP995 P0001 T00500039
PAPH 181756Z AUTO 29008KT 10SM BKN016 OVC021 05/04 A2949 RMK AO2 RAE04 SLP989 P0000 60005 T00500039 10056 20033 53007
PAPH 181656Z AUTO 30010KT 10SM -RA BKN015 BKN021 OVC030 06/04 A2947 RMK AO2 RAB00 SLP983 P0001 T00560044
PAPH 181649Z AUTO 29007KT 8SM -RA SCT014 BKN021 OVC032 06/04 A2947 RMK AO2 RAB00 P0001
PAPH 181630Z AUTO 29013KT 8SM -RA BKN012 BKN018 OVC023 06/04 A2947 RMK AO2 RAB00 P0000
PAPH 181612Z AUTO 29008KT 10SM SCT010 OVC017 06/04 A2947 RMK AO2 RAB00E10 P0000
PAPH 181556Z AUTO 30011KT 10SM BKN011 OVC019 06/05 A2946 RMK AO2 RAB32E53 SLP981 P0004 T00560050
PAPH 181554Z AUTO 29007KT 10SM BKN011 OVC017 06/05 A2947 RMK AO2 RAB32E53 CIG 007V013 P0004
PAPH 181530Z AUTO 24003KT 10SM SCT009 OVC015 05/04 A2947 RMK AO2
PAPH 181515Z AUTO 28003KT 10SM FEW009 BKN013 OVC050 04/04 A2947 RMK AO2
PAPH 181504Z AUTO 20005KT 10SM BKN013 BKN027 OVC043 04/04 A2947 RMK AO2
PAPH 181456Z AUTO 19003KT 10SM SCT013 BKN027 OVC043 04/04 A2946 RMK AO2 SLP981 60000 T00440039 53004
PAPH 181428Z AUTO 29005KT 10SM FEW012 BKN029 OVC038 05/04 A2946 RMK AO2
PAPH 181421Z AUTO 29005KT 10SM FEW012 BKN037 OVC044 05/04 A2946 RMK AO2
PAPH 181412Z AUTO 29005KT 10SM SCT012 BKN017 BKN036 04/04 A2946 RMK AO2
PAPH 181403Z AUTO 21004KT 10SM SCT012 SCT017 BKN043 03/03 A2946 RMK AO2
PAPH 181356Z AUTO 20004KT 10SM SCT015 BKN023 BKN041 04/03 A2945 RMK AO2 RAB41E52 SLP977 P0000 T00390033
PAPH 181309Z AUTO 21004KT 4SM BR OVC016 04/04 A2945 RMK AO2
PAPH 181303Z AUTO 23003KT 2 1/2SM BR BKN014 OVC019 04/04 A2945 RMK AO2
PAPH 181256Z AUTO 21005KT 2 1/2SM BR OVC016 04/04 A2945 RMK AO2 RAE36 SLP977 P0000 T00440039
PAPH 181254Z AUTO 21005KT 3SM BR BKN014 OVC019 04/04 A2945 RMK AO2 RAE36 P0000
PAPH 181217Z AUTO 26009KT 9SM FEW003 BKN015 OVC022 05/05 A2945 RMK AO2 RAE05 P0000
PAPH 181203Z AUTO 22006KT 9SM -RA FEW003 BKN012 OVC017 04/04 A2945 RMK AO2 P0000
PAPH 181156Z AUTO 19005KT 2 1/2SM -RA BR FEW004 BKN010 OVC017 04/04 A2945 RMK AO2 VIS 1 1/2V5 RAB01E16B35 CIG 006V014 SLP975 P0000 60001 70044 T00440044 10050 20028 53007
PAPH 181138Z AUTO 17007KT 1 3/4SM -RA BR FEW002 BKN010 OVC017 04/04 A2944 RMK AO2 RAB01E16B35 P0000
PAPH 181118Z AUTO 19006KT 8SM FEW002 BKN010 OVC023 04/04 A2944 RMK AO2 RAB01E16 P0000
PAPH 181110Z AUTO 18005KT 3SM -RA BR SCT002 BKN008 OVC022 04/04 A2944 RMK AO2 RAB01 CIG 008V012 P0000
PAPH 181103Z AUTO 17006KT 1 1/4SM -RA BR SCT002 BKN008 OVC020 04/04 A2944 RMK AO2 RAB01 P0000
PAPH 181056Z AUTO 19006KT 1SM BR BKN002 OVC020 04/04 A2943 RMK AO2 RAB25E40 SLP970 P0000 T00440044
PAPH 181032Z AUTO 18004KT 3/4SM -RA BR OVC002 04/04 A2943 RMK AO2 RAB25 P0000
PAPH 181024Z AUTO 16005KT 1SM BR OVC002 04/04 A2943 RMK AO2 CIG 002V006
PAPH 181011Z AUTO 18005KT 2 1/2SM BR OVC002 04/04 A2943 RMK AO2
PAPH 180956Z AUTO 18005KT 1 1/2SM BR OVC002 04/04 A2942 RMK AO2 RAB27E40 SLP967 P0000 T00390039
PAPH 180953Z AUTO 19006KT 1 1/2SM BR OVC002 04/04 A2942 RMK AO2 RAB27E40 P0000
PAPH 180946Z AUTO 19005KT 2SM BR OVC002 04/04 A2942 RMK AO2 RAB27E40 P0000
PAPH 180935Z AUTO 19005KT 1 1/4SM -RA BR OVC002 04/04 A2942 RMK AO2 RAB27 P0000
PAPH 180929Z AUTO 19005KT 3/4SM -RA BR OVC002 03/03 A2942 RMK AO2 RAB27 P0000
PAPH 180911Z AUTO 18006KT 1/2SM FG BKN002 BKN009 OVC013 03/03 A2941 RMK AO2
PAPH 180900Z AUTO 17006KT 3/4SM BR BKN002 BKN009 OVC013 03/03 A2941 RMK AO2
PAPH 180856Z AUTO 17008KT 1 1/2SM BR BKN002 BKN009 OVC013 03/03 A2941 RMK AO2 RAB44E56 SLP963 P0000 60001 T00280028 53015
PAPH 180853Z AUTO 17008KT 2 1/2SM -RA BR SCT002 BKN009 OVC028 03/03 A2941 RMK AO2 RAB44 CIG 008V012 P0000
PAPH 180840Z AUTO 17008KT 8SM FEW004 BKN014 OVC028 03/03 A2941 RMK AO2
PAPH 180818Z AUTO 18006KT 10SM FEW004 BKN015 OVC025 03/03 A2941 RMK AO2
PAPH 180803Z AUTO 18007KT 10SM SCT004 BKN011 OVC019 04/04 A2940 RMK AO2 CIG 008V013
PAPH 180756Z AUTO 19008KT 10SM FEW004 BKN008 OVC019 04/04 A2940 RMK AO2 RAE0658 CIG 006V010 SLP959 P0000 T00390039 400720022
PAPH 180656Z AUTO 21008KT 9SM -RA BKN004 OVC008 05/04 A2938 RMK AO2 RAB00 CIG 003V006 SLP951 P0001 T00500044
PAPH 180642Z AUTO 21008KT 3SM -RA BR BKN004 OVC009 05/04 A2937 RMK AO2 RAB00 CIG 004V008 P0000
PAPH 180556Z AUTO 22010KT 8SM BKN008 OVC018 05/04 A2937 RMK AO2 CIG 007V011 SLP948 60011 T00500044 10061 20050 51017
PAPH 180456Z AUTO 20009KT 10SM OVC008 05/04 A2936 RMK AO2 RAB28E45 CIG 006V012 SLP944 P0000 T00500039
PAPH 180448Z AUTO 21009KT 10SM OVC008 05/04 A2936 RMK AO2 RAB28E45 CIG 006V012 P0000
PAPH 180438Z AUTO 21009KT 6SM -RA BR SCT006 BKN010 OVC029 05/04 A2935 RMK AO2 RAB28 CIG 008V016 P0000
PAPH 180430Z AUTO 21010KT 2 1/2SM -RA BR SCT008 BKN012 OVC049 05/04 A2935 RMK AO2 RAB28 P0000
PAPH 180415Z AUTO 21009KT 10SM SCT007 BKN021 OVC049 05/04 A2935 RMK AO2
PAPH 180356Z AUTO 21008KT 10SM OVC007 05/04 A2934 RMK AO2 RAE26 CIG 005V009 SLP938 P0000 T00500044
PAPH 180338Z AUTO 23009KT 10SM BKN007 OVC011 05/04 A2933 RMK AO2 RAE26 CIG 005V010 P0000
PAPH 180327Z AUTO 22009KT 10SM SCT005 BKN011 OVC031 05/04 A2933 RMK AO2 RAE26 P0000
PAPH 180256Z AUTO 23008KT 10SM -RA SCT009 BKN026 OVC034 06/05 A2932 RMK AO2 SLP932 P0004 60011 T00560050 53015
PAPH 180252Z AUTO 23008KT 10SM -RA BKN009 BKN020 OVC038 06/05 A2932 RMK AO2 CIG 006V013 P0004
PAPH 180241Z AUTO 24007KT 10SM -RA FEW009 OVC033 06/04 A2932 RMK AO2 P0003
PAPH 180228Z AUTO 25008KT 9SM -RA SCT007 BKN020 OVC033 06/04 A2931 RMK AO2 P0003
PAPH 180156Z AUTO 26007KT 6SM -RA BR BKN009 BKN013 OVC027 06/05 A2930 RMK AO2 CIG 007V012 SLP925 P0006 T00560050
PAPH 180149Z AUTO 25007KT 10SM -RA BKN009 BKN027 OVC034 06/05 A2930 RMK AO2 CIG 007V014 P0005
PAPH 180127Z AUTO 26008KT 7SM -RA SCT007 BKN018 OVC034 06/05 A2929 RMK AO2 P0004
PAPH 180114Z AUTO 25006KT 3SM -RA BR SCT005 BKN013 OVC020 06/06 A2929 RMK AO2 P0003
PAPH 180104Z AUTO 25004KT 2SM RA BR FEW008 OVC017 06/05 A2929 RMK AO2 P0001
PAPH 180056Z AUTO 27005KT 1 3/4SM -RA BR SCT010 OVC017 06/05 A2929 RMK AO2 SLP920 P0001 T00560050
PAPH 180052Z AUTO 27006KT 1 3/4SM -RA BR SCT008 BKN014 OVC019 06/06 A2928 RMK AO2 P0001
PAPH 180049Z AUTO 27005KT 2SM -RA BR BKN008 BKN014 OVC019 06/05 A2928 RMK AO2 CIG 006V009 P0001
PAPH 180033Z AUTO 27009KT 3SM -RA BR OVC006 06/06 A2928 RMK AO2 CIG 005V010 P0001
PAPH 180020Z AUTO 28009KT 2SM -RA BR BKN006 OVC011 06/06 A2928 RMK AO2 CIG 005V009 P0001
PAPH 180008Z AUTO 28008KT 1 3/4SM -RA BR BKN006 OVC010 06/06 A2928 RMK AO2 CIG 003V009 P0000
PAPH 172356Z AUTO 27006KT 1 3/4SM -RA BR BKN004 OVC010 06/06 A2928 RMK AO2 CIG 003V008 SLP917 P0007 60025 T00610061 10067 20061 55003
PAPH 172354Z AUTO 27007KT 1 3/4SM -RA BR SCT004 OVC010 06/06 A2928 RMK AO2 P0007
PAPH 172351Z AUTO 26007KT 2SM -RA BR BKN004 OVC010 06/06 A2928 RMK AO2 VIS 1 1/2V2 1/2 P0006
PAPH 172342Z AUTO 24005KT 3SM -RA BR BKN004 OVC015 06/06 A2928 RMK AO2 P0006
PAPH 172329Z AUTO 24005KT 7SM -RA SCT004 BKN017 OVC028 07/06 A2928 RMK AO2 P0004
PAPH 172256Z AUTO 23003KT 9SM RA BKN028 OVC033 07/06 A2928 RMK AO2 SLP917 P0004 T00670061
PAPH 172244Z AUTO 21004KT 5SM -RA BR BKN026 OVC033 07/06 A2928 RMK AO2 P0003
PAPH 172235Z AUTO 19005KT 4SM -RA BR OVC030 07/06 A2928 RMK AO2 P0002
PAPH 172226Z AUTO 20005KT 4SM -RA BR BKN028 OVC036 07/06 A2928 RMK AO2 P0002
PAPH 172156Z AUTO 19004KT 10SM -RA OVC042 06/06 A2929 RMK AO2 SLP920 P0006 T00610056
PAPH 172056Z AUTO 16012KT 10SM -RA OVC042 06/05 A2930 RMK AO2 SLP925 P0004 60008 T00610050 55002
PAPH 171956Z AUTO 16011KT 10SM -RA OVC046 06/05 A2929 RMK AO2 SLP922 P0003 T00610050
PAPH 171856Z AUTO 15005KT 10SM -RA FEW037 OVC060 06/06 A2930 RMK AO2 SLP925 P0001 T00610056
PAPH 171756Z AUTO 15007KT 10SM -RA OVC055 07/06 A2931 RMK AO2 SLP927 P0002 60007 T00670056 10072 20022 56012
PAPH 171656Z AUTO 14010KT 10SM -RA OVC048 07/06 A2931 RMK AO2 SLP928 P0003 T00670056
PAPH 171556Z AUTO 11006KT 10SM -RA OVC048 07/06 A2932 RMK AO2 SLP932 P0002 T00720061
PAPH 171456Z AUTO 10005KT 10SM -RA FEW026 OVC055 04/04 A2934 RMK AO2 RAB40 SLP939 P0000 60000 T00440044 56018
PAPH 171356Z AUTO 05003KT 10SM SCT120 03/03 A2936 RMK AO2 SLP944 T00280028
PAPH 171256Z AUTO 06005KT 10SM FEW110 03/03 A2938 RMK AO2 SLP951 T00280028